createdAt,value
2019-05-22T00:02:37.388Z,15.90
2019-05-22T00:05:16.233Z,15.90
2019-05-22T00:07:48.944Z,15.90
2019-05-22T00:10:32.910Z,15.90
2019-05-22T00:13:07.631Z,15.90
2019-05-22T00:15:41.064Z,15.90
2019-05-22T00:18:16.253Z,15.90
2019-05-22T00:20:49.387Z,15.90
2019-05-22T00:23:23.092Z,15.90
2019-05-22T00:25:55.587Z,15.90
2019-05-22T00:28:28.378Z,15.90
2019-05-22T00:31:01.559Z,15.90
2019-05-22T00:33:36.424Z,15.80
2019-05-22T00:36:13.574Z,15.70
2019-05-22T00:38:46.623Z,15.70
2019-05-22T00:41:21.233Z,15.70
2019-05-22T00:43:55.246Z,15.60
2019-05-22T00:46:30.183Z,15.50
2019-05-22T00:49:04.047Z,15.50
2019-05-22T00:51:45.858Z,15.50
2019-05-22T00:54:34.964Z,15.40
2019-05-22T00:57:17.874Z,15.40
2019-05-22T00:59:51.145Z,15.30
2019-05-22T01:02:28.778Z,15.30
2019-05-22T01:05:01.327Z,15.30
2019-05-22T01:07:39.704Z,15.30
2019-05-22T01:10:12.811Z,15.30
2019-05-22T01:12:51.016Z,15.30
2019-05-22T01:15:25.040Z,15.20
2019-05-22T01:17:58.066Z,15.10
2019-05-22T01:20:32.738Z,15.10
2019-05-22T01:23:06.745Z,15.10
2019-05-22T01:25:40.661Z,15.00
2019-05-22T01:28:16.469Z,14.90
2019-05-22T01:30:54.826Z,14.90
2019-05-22T01:33:31.331Z,14.90
2019-05-22T01:36:24.231Z,14.80
2019-05-22T01:39:04.170Z,14.70
2019-05-22T01:41:38.896Z,14.70
2019-05-22T01:44:12.132Z,14.60
2019-05-22T01:46:46.142Z,14.60
2019-05-22T01:49:18.883Z,14.60
2019-05-22T01:51:52.823Z,14.70
2019-05-22T01:54:26.042Z,14.70
2019-05-22T01:57:06.771Z,14.60
2019-05-22T01:59:40.036Z,14.50
2019-05-22T02:02:14.428Z,14.50
2019-05-22T02:04:48.072Z,14.50
2019-05-22T02:07:21.851Z,14.50
2019-05-22T02:09:55.911Z,14.50
2019-05-22T02:12:52.566Z,14.50
2019-05-22T02:15:27.727Z,14.50
2019-05-22T02:18:03.056Z,14.50
2019-05-22T02:20:36.709Z,14.40
2019-05-22T02:23:10.240Z,14.40
2019-05-22T02:25:42.668Z,14.40
2019-05-22T02:28:15.002Z,14.40
2019-05-22T02:30:48.685Z,14.40
2019-05-22T02:33:24.959Z,14.40
2019-05-22T02:36:00.359Z,14.40
2019-05-22T02:38:32.836Z,14.40
2019-05-22T02:41:08.083Z,14.30
2019-05-22T02:43:41.922Z,14.30
2019-05-22T02:46:14.541Z,14.40
2019-05-22T02:48:49.240Z,14.40
2019-05-22T02:51:22.161Z,14.40
2019-05-22T02:53:59.448Z,14.40
2019-05-22T02:56:31.750Z,14.40
2019-05-22T02:59:08.171Z,14.40
2019-05-22T03:01:40.636Z,14.40
2019-05-22T03:04:14.719Z,14.40
2019-05-22T03:06:47.696Z,14.40
2019-05-22T03:09:40.797Z,14.40
2019-05-22T03:12:16.254Z,14.30
2019-05-22T03:14:49.520Z,14.30
2019-05-22T03:17:31.301Z,14.30
2019-05-22T03:20:14.239Z,14.40
2019-05-22T03:23:41.262Z,14.40
2019-05-22T03:26:14.946Z,14.40
2019-05-22T03:28:48.158Z,14.40
2019-05-22T03:31:20.919Z,14.40
2019-05-22T03:33:53.409Z,14.40
2019-05-22T03:36:26.073Z,14.30
2019-05-22T03:39:00.186Z,14.40
2019-05-22T03:41:33.719Z,14.40
2019-05-22T03:44:07.400Z,14.30
2019-05-22T03:46:46.346Z,14.30
2019-05-22T03:49:30.146Z,14.30
2019-05-22T03:51:56.316Z,14.30
2019-05-22T03:54:30.242Z,14.30
2019-05-22T03:57:03.320Z,14.30
2019-05-22T03:59:38.501Z,14.20
2019-05-22T04:02:12.485Z,14.20
2019-05-22T04:04:46.942Z,14.10
2019-05-22T04:07:23.945Z,14.10
2019-05-22T04:09:57.748Z,14.10
2019-05-22T04:12:30.057Z,14.10
2019-05-22T04:15:04.062Z,14.10
2019-05-22T04:17:37.995Z,14.10
2019-05-22T04:20:11.890Z,14.10
2019-05-22T04:22:44.329Z,14.10
2019-05-22T04:25:17.671Z,14.00
2019-05-22T04:27:49.993Z,14.00
2019-05-22T04:30:23.735Z,14.00
2019-05-22T04:32:57.258Z,13.90
2019-05-22T04:35:29.977Z,13.90
2019-05-22T04:38:02.246Z,13.90
2019-05-22T04:40:56.868Z,13.80
2019-05-22T04:43:32.772Z,13.80
2019-05-22T04:46:08.492Z,13.70
2019-05-22T04:48:45.495Z,13.70
2019-05-22T04:51:32.076Z,13.70
2019-05-22T04:54:04.516Z,13.70
2019-05-22T04:56:37.386Z,13.70
2019-05-22T04:59:09.770Z,13.60
2019-05-22T05:01:43.078Z,13.50
2019-05-22T05:04:16.210Z,13.50
2019-05-22T05:06:48.959Z,13.50
2019-05-22T05:09:24.864Z,13.40
2019-05-22T05:11:57.764Z,13.40
2019-05-22T05:14:30.753Z,13.40
2019-05-22T05:17:05.107Z,13.40
2019-05-22T05:19:37.441Z,13.30
2019-05-22T05:22:11.808Z,13.30
2019-05-22T05:24:44.203Z,13.30
2019-05-22T05:27:16.994Z,13.30
2019-05-22T05:29:49.587Z,13.20
2019-05-22T05:32:23.283Z,13.20
2019-05-22T05:35:29.180Z,13.20
2019-05-22T05:38:08.568Z,13.10
2019-05-22T05:40:42.646Z,13.00
2019-05-22T05:43:17.855Z,13.00
2019-05-22T05:45:51.990Z,12.90
2019-05-22T05:48:26.124Z,13.00
2019-05-22T05:51:25.780Z,12.90
2019-05-22T05:54:08.896Z,12.90
2019-05-22T05:56:48.486Z,12.90
2019-05-22T05:59:22.984Z,12.80
2019-05-22T06:01:59.053Z,12.80
2019-05-22T06:04:38.741Z,12.80
2019-05-22T06:07:25.150Z,12.80
2019-05-22T06:11:00.951Z,12.90
2019-05-22T06:13:34.199Z,12.80
2019-05-22T06:17:02.040Z,12.80
2019-05-22T06:19:37.644Z,12.80
2019-05-22T06:22:11.727Z,12.70
2019-05-22T06:24:59.937Z,12.70
2019-05-22T06:27:50.150Z,12.60
2019-05-22T06:30:44.938Z,12.60
2019-05-22T06:33:45.267Z,12.60
2019-05-22T06:36:19.431Z,12.60
2019-05-22T06:39:14.483Z,12.40
2019-05-22T06:41:48.912Z,12.50
2019-05-22T06:44:35.326Z,12.60
2019-05-22T06:47:11.685Z,12.50
2019-05-22T06:49:49.664Z,12.60
2019-05-22T06:52:24.013Z,12.60
2019-05-22T06:54:57.283Z,12.70
2019-05-22T06:57:34.691Z,12.60
2019-05-22T07:00:26.069Z,12.60
2019-05-22T07:02:58.866Z,12.60
2019-05-22T07:05:31.819Z,12.60
2019-05-22T07:08:04.925Z,12.60
2019-05-22T07:10:38.235Z,12.60
2019-05-22T07:13:11.365Z,12.50
2019-05-22T07:15:52.393Z,12.50
2019-05-22T07:18:32.238Z,12.50
2019-05-22T07:21:05.032Z,12.40
2019-05-22T07:23:37.283Z,12.40
2019-05-22T07:26:53.750Z,12.40
2019-05-22T07:29:28.826Z,12.40
2019-05-22T07:32:03.012Z,12.40
2019-05-22T07:34:35.276Z,12.40
2019-05-22T07:37:08.314Z,12.40
2019-05-22T07:39:40.824Z,12.40
2019-05-22T07:42:13.247Z,12.40
2019-05-22T07:44:45.573Z,12.50
2019-05-22T07:47:23.280Z,12.40
2019-05-22T07:49:55.717Z,12.50
2019-05-22T07:52:28.464Z,12.50
2019-05-22T07:55:01.313Z,12.50
2019-05-22T07:57:36.493Z,12.60
2019-05-22T08:00:43.050Z,12.50
2019-05-22T08:03:35.921Z,12.60
2019-05-22T08:06:09.791Z,12.70
2019-05-22T08:08:44.660Z,12.70
2019-05-22T08:11:19.009Z,12.70
2019-05-22T08:13:53.964Z,12.70
2019-05-22T08:16:27.945Z,12.70
2019-05-22T08:19:00.607Z,12.70
2019-05-22T08:21:33.686Z,12.70
2019-05-22T08:24:07.763Z,12.70
2019-05-22T08:26:53.744Z,12.70
2019-05-22T08:29:17.282Z,12.70
2019-05-22T08:31:51.456Z,12.70
2019-05-22T08:34:24.424Z,12.80
2019-05-22T08:36:58.074Z,12.80
2019-05-22T08:39:30.419Z,12.80
2019-05-22T08:42:04.071Z,12.60
2019-05-22T08:44:36.610Z,12.60
2019-05-22T08:47:09.568Z,12.60
2019-05-22T08:49:43.002Z,12.70
2019-05-22T08:52:23.731Z,12.70
2019-05-22T08:54:51.364Z,12.70
2019-05-22T08:57:24.605Z,12.70
2019-05-22T08:59:56.991Z,12.80
2019-05-22T09:02:30.676Z,12.90
2019-05-22T09:05:03.345Z,12.90
2019-05-22T09:07:36.916Z,13.00
2019-05-22T09:10:09.938Z,13.00
2019-05-22T09:12:42.950Z,13.10
2019-05-22T09:15:15.861Z,13.00
2019-05-22T09:17:48.697Z,13.00
2019-05-22T09:20:24.159Z,13.10
2019-05-22T09:22:56.365Z,13.10
2019-05-22T09:25:29.077Z,13.10
2019-05-22T09:28:01.488Z,13.10
2019-05-22T09:30:34.276Z,13.10
2019-05-22T09:33:06.662Z,13.20
2019-05-22T09:35:39.256Z,13.20
2019-05-22T09:38:11.817Z,13.10
2019-05-22T09:40:44.720Z,13.10
2019-05-22T09:43:17.231Z,13.00
2019-05-22T09:45:49.924Z,13.10
2019-05-22T09:48:23.136Z,13.10
2019-05-22T09:50:56.193Z,13.10
2019-05-22T09:53:28.723Z,13.20
2019-05-22T09:56:01.315Z,13.30
2019-05-22T09:58:33.919Z,13.20
2019-05-22T10:01:11.663Z,13.20
2019-05-22T10:03:43.323Z,13.20
2019-05-22T10:06:15.657Z,13.20
2019-05-22T10:08:47.827Z,13.30
2019-05-22T10:11:20.922Z,13.30
2019-05-22T10:13:53.681Z,13.30
2019-05-22T10:16:26.006Z,13.40
2019-05-22T10:18:58.843Z,13.40
2019-05-22T10:21:31.618Z,13.40
2019-05-22T10:24:04.639Z,13.30
2019-05-22T10:26:38.143Z,13.30
2019-05-22T10:29:11.099Z,13.20
2019-05-22T10:31:43.918Z,13.20
2019-05-22T10:34:17.557Z,13.20
2019-05-22T10:36:50.351Z,13.10
2019-05-22T10:39:25.267Z,13.10
2019-05-22T10:41:59.311Z,13.10
2019-05-22T10:44:33.186Z,13.20
2019-05-22T10:47:06.748Z,13.20
2019-05-22T10:49:39.925Z,13.20
2019-05-22T10:52:13.340Z,13.20
2019-05-22T10:54:46.818Z,13.20
2019-05-22T10:57:19.787Z,13.20
2019-05-22T10:59:52.694Z,13.10
2019-05-22T11:02:26.312Z,13.10
2019-05-22T11:04:58.859Z,13.10
2019-05-22T11:07:32.200Z,13.20
2019-05-22T11:10:05.992Z,13.20
2019-05-22T11:12:41.898Z,13.20
2019-05-22T11:15:16.728Z,13.20
2019-05-22T11:17:49.754Z,13.20
2019-05-22T11:20:24.102Z,13.10
2019-05-22T11:22:58.195Z,13.10
2019-05-22T11:25:31.955Z,13.00
2019-05-22T11:28:05.200Z,13.00
2019-05-22T11:30:37.918Z,13.00
2019-05-22T11:33:11.669Z,13.10
2019-05-22T11:35:44.597Z,13.00
2019-05-22T11:38:18.145Z,13.10
2019-05-22T11:40:51.322Z,13.20
2019-05-22T11:43:24.292Z,13.20
2019-05-22T11:45:57.308Z,13.20
2019-05-22T11:48:30.202Z,13.10
2019-05-22T11:51:03.113Z,13.10
2019-05-22T11:53:36.320Z,13.20
2019-05-22T11:56:11.375Z,13.10
2019-05-22T11:58:45.641Z,13.00
2019-05-22T12:01:18.185Z,13.00
2019-05-22T12:03:51.143Z,13.00
2019-05-22T12:06:24.600Z,13.00
2019-05-22T12:08:57.805Z,13.00
2019-05-22T12:11:30.880Z,13.00
2019-05-22T12:14:03.461Z,13.00
2019-05-22T12:16:36.239Z,13.00
2019-05-22T12:19:08.678Z,13.00
2019-05-22T12:21:41.959Z,13.00
2019-05-22T12:24:27.204Z,13.00
2019-05-22T12:26:49.343Z,13.10
2019-05-22T12:29:21.681Z,13.00
2019-05-22T12:31:54.591Z,13.00
2019-05-22T12:34:27.755Z,13.10
2019-05-22T12:37:00.169Z,13.10
2019-05-22T12:39:33.456Z,13.00
2019-05-22T12:42:07.810Z,13.00
2019-05-22T12:44:40.235Z,13.00
2019-05-22T12:47:12.705Z,12.90
2019-05-22T12:49:45.546Z,12.80
2019-05-22T12:52:18.563Z,12.80
2019-05-22T12:54:52.850Z,12.70
2019-05-22T12:57:25.973Z,12.70
2019-05-22T13:00:02.580Z,12.70
2019-05-22T13:02:35.252Z,12.70
2019-05-22T13:05:08.672Z,12.70
2019-05-22T13:07:42.118Z,12.80
2019-05-22T13:10:16.972Z,12.80
2019-05-22T13:12:49.414Z,12.80
2019-05-22T13:15:23.565Z,12.80
2019-05-22T13:17:58.207Z,12.80
2019-05-22T13:20:42.958Z,12.80
2019-05-22T13:23:14.737Z,12.90
2019-05-22T13:25:47.546Z,12.90
2019-05-22T13:28:20.930Z,12.80
2019-05-22T13:30:56.682Z,12.90
2019-05-22T13:33:29.421Z,12.80
2019-05-22T13:36:02.010Z,12.80
2019-05-22T13:38:35.575Z,12.70
2019-05-22T13:41:09.736Z,12.70
2019-05-22T13:43:42.163Z,12.70
2019-05-22T13:46:16.284Z,12.70
2019-05-22T13:48:48.681Z,12.70
2019-05-22T13:51:21.005Z,12.70
2019-05-22T13:53:54.552Z,12.70
2019-05-22T13:56:27.042Z,12.60
2019-05-22T13:59:01.484Z,12.60
2019-05-22T14:01:33.812Z,12.70
2019-05-22T14:04:06.460Z,12.80
2019-05-22T14:06:39.356Z,12.80
2019-05-22T14:09:20.910Z,12.70
2019-05-22T14:11:50.651Z,12.70
2019-05-22T14:14:23.218Z,12.70
2019-05-22T14:16:55.780Z,12.80
2019-05-22T14:19:28.118Z,12.80
2019-05-22T14:22:00.475Z,12.80
2019-05-22T14:24:32.853Z,12.90
2019-05-22T14:27:05.441Z,12.90
2019-05-22T14:29:38.170Z,12.90
2019-05-22T14:32:11.000Z,12.90
2019-05-22T14:34:43.430Z,12.80
2019-05-22T14:37:16.210Z,12.90
2019-05-22T14:39:49.156Z,12.80
2019-05-22T14:42:22.465Z,12.80
2019-05-22T14:44:54.990Z,12.80
2019-05-22T14:47:28.894Z,12.70
2019-05-22T14:50:01.590Z,12.70
2019-05-22T14:52:34.434Z,12.70
2019-05-22T14:55:07.425Z,12.60
2019-05-22T14:57:40.379Z,12.60
2019-05-22T15:00:14.809Z,12.60
2019-05-22T15:02:53.100Z,12.70
2019-05-22T15:05:22.493Z,12.70
2019-05-22T15:07:55.296Z,12.60
2019-05-22T15:10:27.965Z,12.60
2019-05-22T15:13:01.171Z,12.60
2019-05-22T15:15:34.218Z,12.50
2019-05-22T15:18:07.228Z,12.50
2019-05-22T15:20:53.100Z,12.50
2019-05-22T15:23:26.905Z,12.50
2019-05-22T15:26:00.999Z,12.50
2019-05-22T15:28:33.610Z,12.60
2019-05-22T15:31:06.459Z,12.60
2019-05-22T15:33:39.695Z,12.60
2019-05-22T15:36:13.825Z,12.60
2019-05-22T15:38:47.521Z,12.60
2019-05-22T15:41:20.652Z,12.60
2019-05-22T15:43:53.506Z,12.60
2019-05-22T15:46:28.409Z,12.60
2019-05-22T15:49:02.297Z,12.60
2019-05-22T15:51:35.735Z,12.60
2019-05-22T15:54:09.298Z,12.60
2019-05-22T15:56:44.607Z,12.60
2019-05-22T15:59:20.451Z,12.60
2019-05-22T16:01:52.971Z,12.50
2019-05-22T16:04:25.993Z,12.50
2019-05-22T16:07:05.005Z,12.50
2019-05-22T16:09:38.026Z,12.60
2019-05-22T16:12:12.470Z,12.50
2019-05-22T16:14:45.086Z,12.50
2019-05-22T16:17:19.028Z,12.50
2019-05-22T16:19:53.803Z,12.50
2019-05-22T16:22:27.076Z,12.50
2019-05-22T16:24:59.530Z,12.50
2019-05-22T16:27:33.747Z,12.50
2019-05-22T16:30:07.469Z,12.50
2019-05-22T16:32:40.112Z,12.50
2019-05-22T16:35:12.732Z,12.50
2019-05-22T16:37:46.783Z,12.50
2019-05-22T16:40:19.690Z,12.50
2019-05-22T16:42:53.207Z,12.50
2019-05-22T16:45:27.082Z,12.50
2019-05-22T16:48:01.778Z,12.50
2019-05-22T16:50:34.981Z,12.50
2019-05-22T16:53:12.034Z,12.50
2019-05-22T16:55:46.304Z,12.50
2019-05-22T16:58:19.918Z,12.60
2019-05-22T17:00:56.819Z,12.60
2019-05-22T17:03:30.374Z,12.60
2019-05-22T17:06:03.315Z,12.50
2019-05-22T17:08:36.887Z,12.50
2019-05-22T17:11:10.069Z,12.50
2019-05-22T17:13:44.983Z,12.50
2019-05-22T17:16:18.678Z,12.60
2019-05-22T17:18:52.735Z,12.60
2019-05-22T17:21:25.621Z,12.60
2019-05-22T17:23:59.480Z,12.60
2019-05-22T17:26:32.407Z,12.70
2019-05-22T17:29:05.306Z,12.70
2019-05-22T17:31:38.613Z,12.60
2019-05-22T17:34:28.967Z,12.60
2019-05-22T17:37:03.944Z,12.60
2019-05-22T17:39:39.490Z,12.60
2019-05-22T17:42:16.530Z,12.60
2019-05-22T17:44:51.581Z,12.60
2019-05-22T17:47:27.199Z,12.60
2019-05-22T17:50:02.242Z,12.60
2019-05-22T17:52:35.566Z,12.60
2019-05-22T17:55:10.006Z,12.60
2019-05-22T17:57:42.508Z,12.60
2019-05-22T18:00:24.369Z,12.60
2019-05-22T18:02:57.047Z,12.60
2019-05-22T18:05:30.029Z,12.60
2019-05-22T18:08:02.697Z,12.60
2019-05-22T18:10:40.427Z,12.70
2019-05-22T18:13:13.567Z,12.70
2019-05-22T18:15:46.612Z,12.70
2019-05-22T18:18:19.674Z,12.70
2019-05-22T18:20:52.811Z,12.70
2019-05-22T18:23:25.264Z,12.60
2019-05-22T18:25:57.889Z,12.60
2019-05-22T18:28:30.733Z,12.60
2019-05-22T18:31:03.890Z,12.70
2019-05-22T18:33:36.760Z,12.70
2019-05-22T18:36:10.017Z,12.70
2019-05-22T18:38:42.502Z,12.70
2019-05-22T18:41:16.499Z,12.70
2019-05-22T18:43:49.184Z,12.70
2019-05-22T18:46:21.897Z,12.70
2019-05-22T18:48:54.498Z,12.60
2019-05-22T18:51:28.231Z,12.60
2019-05-22T18:54:01.338Z,12.70
2019-05-22T18:56:33.963Z,12.70
2019-05-22T18:59:06.867Z,12.70
2019-05-22T19:01:39.915Z,12.70
2019-05-22T19:04:12.478Z,12.60
2019-05-22T19:06:45.525Z,12.60
2019-05-22T19:09:17.935Z,12.60
2019-05-22T19:11:54.208Z,12.70
2019-05-22T19:14:28.570Z,12.60
2019-05-22T19:17:02.315Z,12.60
2019-05-22T19:19:36.088Z,12.60
2019-05-22T19:22:08.957Z,12.60
2019-05-22T19:24:41.338Z,12.70
2019-05-22T19:27:14.143Z,12.70
2019-05-22T19:29:46.432Z,12.70
2019-05-22T19:32:19.023Z,12.70
2019-05-22T19:34:54.298Z,12.60
2019-05-22T19:37:26.720Z,12.60
2019-05-22T19:40:00.188Z,12.60
2019-05-22T19:42:32.604Z,12.60
2019-05-22T19:45:06.354Z,12.70
2019-05-22T19:47:43.337Z,12.70
2019-05-22T19:50:36.985Z,12.70
2019-05-22T19:53:18.869Z,12.60
2019-05-22T19:55:45.688Z,12.60
2019-05-22T19:58:21.800Z,12.60
2019-05-22T20:00:52.800Z,12.60
2019-05-22T20:03:27.701Z,12.60
2019-05-22T20:06:00.606Z,12.60
2019-05-22T20:08:36.287Z,12.60
2019-05-22T20:11:07.632Z,12.70
2019-05-22T20:13:40.493Z,12.70
2019-05-22T20:16:13.419Z,12.60
2019-05-22T20:18:46.048Z,12.60
2019-05-22T20:21:18.716Z,12.60
2019-05-22T20:23:50.985Z,12.60
2019-05-22T20:26:24.220Z,12.60
2019-05-22T20:29:01.156Z,12.50
2019-05-22T20:31:33.508Z,12.50
2019-05-22T20:34:07.458Z,12.50
2019-05-22T20:36:41.298Z,12.50
2019-05-22T20:39:16.776Z,12.50
2019-05-22T20:41:49.202Z,12.50
2019-05-22T20:44:23.333Z,12.40
2019-05-22T20:46:56.931Z,12.50
2019-05-22T20:49:32.159Z,12.40
2019-05-22T20:52:05.887Z,12.40
2019-05-22T20:54:38.636Z,12.50
2019-05-22T20:57:19.580Z,12.50
2019-05-22T20:59:50.620Z,12.50
2019-05-22T21:02:24.246Z,12.50
2019-05-22T21:05:00.870Z,12.40
2019-05-22T21:07:43.740Z,12.40
2019-05-22T21:10:20.918Z,12.40
2019-05-22T21:12:53.587Z,12.40
2019-05-22T21:15:28.063Z,12.40
2019-05-22T21:18:05.163Z,12.40
2019-05-22T21:20:53.686Z,12.40
2019-05-22T21:23:15.663Z,12.40
2019-05-22T21:25:48.442Z,12.30
2019-05-22T21:28:21.579Z,12.30
2019-05-22T21:30:55.891Z,12.40
2019-05-22T21:33:29.356Z,12.30
2019-05-22T21:36:01.941Z,12.30
2019-05-22T21:38:34.755Z,12.30
2019-05-22T21:41:09.612Z,12.30
2019-05-22T21:43:42.345Z,12.30
2019-05-22T21:46:14.656Z,12.20
2019-05-22T21:48:48.620Z,12.30
2019-05-22T21:51:21.032Z,12.30
2019-05-22T21:53:55.788Z,12.20
2019-05-22T21:56:28.744Z,12.30
2019-05-22T21:59:01.135Z,12.30
2019-05-22T22:01:57.061Z,12.30
2019-05-22T22:04:48.298Z,12.30
2019-05-22T22:07:38.699Z,12.30
2019-05-22T22:10:12.587Z,12.20
2019-05-22T22:12:48.058Z,12.20
2019-05-22T22:15:22.379Z,12.30
2019-05-22T22:17:55.520Z,12.20
2019-05-22T22:20:28.322Z,12.20
2019-05-22T22:23:00.606Z,12.20
2019-05-22T22:25:33.331Z,12.20
2019-05-22T22:28:06.417Z,12.20
2019-05-22T22:30:46.322Z,12.20
2019-05-22T22:33:24.447Z,12.20
2019-05-22T22:35:57.025Z,12.20
2019-05-22T22:38:30.767Z,12.20
2019-05-22T22:41:05.106Z,12.10
2019-05-22T22:43:39.691Z,12.20
2019-05-22T22:46:30.140Z,12.10
2019-05-22T22:49:05.623Z,12.10
2019-05-22T22:51:37.991Z,12.10
2019-05-22T22:54:11.898Z,12.10
2019-05-22T22:56:45.886Z,12.10
2019-05-22T22:59:18.252Z,12.10
2019-05-22T23:01:55.925Z,12.10
2019-05-22T23:04:29.858Z,12.10
2019-05-22T23:07:08.134Z,12.10
2019-05-22T23:09:44.346Z,12.00
2019-05-22T23:12:17.845Z,12.00
2019-05-22T23:14:56.865Z,12.00
2019-05-22T23:17:30.134Z,12.00
2019-05-22T23:20:02.033Z,12.00
2019-05-22T23:22:32.373Z,12.00
2019-05-22T23:25:06.793Z,12.00
2019-05-22T23:27:40.740Z,12.00
2019-05-22T23:30:14.426Z,11.90
2019-05-22T23:32:47.462Z,11.90
2019-05-22T23:35:22.863Z,11.90
2019-05-22T23:37:57.134Z,11.90
2019-05-22T23:40:33.191Z,11.90
2019-05-22T23:43:07.702Z,11.90
2019-05-22T23:45:40.233Z,11.90
2019-05-22T23:48:14.675Z,11.80
2019-05-22T23:50:48.430Z,11.80
2019-05-22T23:53:23.686Z,11.80
2019-05-22T23:55:56.979Z,11.80
2019-05-22T23:58:29.391Z,11.80
